EFMI

Mikkeli Airport

Mikkeli, Finland
METAR EFMI 240320Z 00000KT 9999 MIFG SKC M00/M00 Q0998
Observed Flight Rules
Sep-24 @ 03:20 UTC (25 minutes ago) Visual Flight Rules
Visibility Clouds Conditions
10,000+ meters
  • Clear skies
  • Shallow
  • Fog
Temperatures Readings
Current 0°C / 32°F
Dewpoint 0°C / 32°F
Humidity 100%
Altimeter 29.47" Hg
Pressure 998 hPa
Elevation 138
METAR EFMI 240320Z 00000KT 9999 MIFG SKC M00/M00 Q0998
Observed Flight Rules
Sep-24 @ 03:20 UTC
(25 minutes ago)
VFR
Clouds
  • Clear skies
Conditions
  • Shallow
  • Fog
Temperature Dewpoint
0°C / 32°F 0°C / 32°F
Humidity Altimeter Pressure
100% 29.47" Hg 998 hPa